sensor_id;sensor_type;location;lat;lon;timestamp;pressure;altitude;pressure_sealevel;temperature;humidity
67840;BME280;54636;51.684;5.142;2022-08-14T00:01:33;101145.66;;;19.97;61.96
67840;BME280;54636;51.684;5.142;2022-08-14T00:03:59;101149.34;;;19.99;61.60
67840;BME280;54636;51.684;5.142;2022-08-14T00:06:24;101144.91;;;19.96;61.44
67840;BME280;54636;51.684;5.142;2022-08-14T00:08:50;101141.06;;;19.99;61.13
67840;BME280;54636;51.684;5.142;2022-08-14T00:11:15;101147.47;;;19.94;61.49
67840;BME280;54636;51.684;5.142;2022-08-14T00:13:40;101127.69;;;19.83;61.27
67840;BME280;54636;51.684;5.142;2022-08-14T00:16:07;101135.28;;;19.90;61.27
67840;BME280;54636;51.684;5.142;2022-08-14T00:18:34;101134.88;;;19.86;61.73
67840;BME280;54636;51.684;5.142;2022-08-14T00:20:59;101116.06;;;19.77;61.67
67840;BME280;54636;51.684;5.142;2022-08-14T00:23:25;101127.91;;;19.85;61.83
67840;BME280;54636;51.684;5.142;2022-08-14T00:25:52;101119.97;;;19.81;62.06
67840;BME280;54636;51.684;5.142;2022-08-14T00:28:19;101122.72;;;19.81;61.95
67840;BME280;54636;51.684;5.142;2022-08-14T00:30:54;101117.53;;;19.78;62.16
67840;BME280;54636;51.684;5.142;2022-08-14T00:33:22;101097.97;;;19.68;61.87
67840;BME280;54636;51.684;5.142;2022-08-14T00:35:47;101096.09;;;19.63;62.06
67840;BME280;54636;51.684;5.142;2022-08-14T00:38:13;101116.25;;;19.79;61.62
67840;BME280;54636;51.684;5.142;2022-08-14T00:40:38;101109.06;;;19.76;61.71
67840;BME280;54636;51.684;5.142;2022-08-14T00:43:04;101071.75;;;19.54;61.47
67840;BME280;54636;51.684;5.142;2022-08-14T00:45:29;101105.56;;;19.75;61.54
67840;BME280;54636;51.684;5.142;2022-08-14T00:47:54;101098.03;;;19.76;61.68
67840;BME280;54636;51.684;5.142;2022-08-14T00:50:21;101096.56;;;19.74;61.66
67840;BME280;54636;51.684;5.142;2022-08-14T00:52:50;101099.66;;;19.71;61.62
67840;BME280;54636;51.684;5.142;2022-08-14T00:55:16;101095.41;;;19.70;60.07
67840;BME280;54636;51.684;5.142;2022-08-14T00:57:42;101094.81;;;19.64;61.72
67840;BME280;54636;51.684;5.142;2022-08-14T01:00:12;101077.78;;;19.52;62.49
67840;BME280;54636;51.684;5.142;2022-08-14T01:02:40;101079.81;;;19.52;62.46
67840;BME280;54636;51.684;5.142;2022-08-14T01:05:06;101081.28;;;19.53;62.35
67840;BME280;54636;51.684;5.142;2022-08-14T01:07:32;101075.53;;;19.51;62.48
67840;BME280;54636;51.684;5.142;2022-08-14T01:09:59;101071.69;;;19.46;62.18
67840;BME280;54636;51.684;5.142;2022-08-14T01:12:29;101075.72;;;19.45;62.85
67840;BME280;54636;51.684;5.142;2022-08-14T01:14:59;101068.50;;;19.42;62.82
67840;BME280;54636;51.684;5.142;2022-08-14T01:17:27;101057.00;;;19.30;62.40
67840;BME280;54636;51.684;5.142;2022-08-14T01:20:13;101067.38;;;19.37;62.35
67840;BME280;54636;51.684;5.142;2022-08-14T01:22:57;101055.53;;;19.29;62.97
67840;BME280;54636;51.684;5.142;2022-08-14T01:25:23;101068.56;;;19.29;63.47
67840;BME280;54636;51.684;5.142;2022-08-14T01:27:49;101064.44;;;19.22;63.73
67840;BME280;54636;51.684;5.142;2022-08-14T01:30:14;101057.06;;;19.17;63.46
67840;BME280;54636;51.684;5.142;2022-08-14T01:32:40;101045.53;;;19.05;64.11
67840;BME280;54636;51.684;5.142;2022-08-14T01:35:06;101061.19;;;19.11;63.81
67840;BME280;54636;51.684;5.142;2022-08-14T01:37:32;101054.00;;;19.07;63.96
67840;BME280;54636;51.684;5.142;2022-08-14T01:39:58;101055.81;;;19.05;64.07
67840;BME280;54636;51.684;5.142;2022-08-14T01:42:23;101055.94;;;18.99;65.34
67840;BME280;54636;51.684;5.142;2022-08-14T01:44:49;101057.53;;;18.95;65.07
67840;BME280;54636;51.684;5.142;2022-08-14T01:47:16;101021.63;;;18.66;65.25
67840;BME280;54636;51.684;5.142;2022-08-14T01:49:43;101046.38;;;18.80;64.98
67840;BME280;54636;51.684;5.142;2022-08-14T01:52:09;101052.72;;;18.74;65.22
67840;BME280;54636;51.684;5.142;2022-08-14T01:54:35;101058.22;;;18.74;66.26
67840;BME280;54636;51.684;5.142;2022-08-14T01:57:01;101041.50;;;18.59;65.33
67840;BME280;54636;51.684;5.142;2022-08-14T01:59:28;101058.88;;;18.67;65.44
67840;BME280;54636;51.684;5.142;2022-08-14T02:02:03;101052.75;;;18.61;66.29
67840;BME280;54636;51.684;5.142;2022-08-14T02:04:35;101053.78;;;18.58;66.23
67840;BME280;54636;51.684;5.142;2022-08-14T02:07:01;101045.75;;;18.60;65.85
67840;BME280;54636;51.684;5.142;2022-08-14T02:09:28;101039.91;;;18.51;65.47
67840;BME280;54636;51.684;5.142;2022-08-14T02:12:00;101036.63;;;18.52;65.47
67840;BME280;54636;51.684;5.142;2022-08-14T02:14:25;101034.00;;;18.47;65.43
67840;BME280;54636;51.684;5.142;2022-08-14T02:16:51;101027.00;;;18.46;65.80
67840;BME280;54636;51.684;5.142;2022-08-14T02:19:19;101039.59;;;18.54;65.73
67840;BME280;54636;51.684;5.142;2022-08-14T02:21:46;101042.88;;;18.53;65.80
67840;BME280;54636;51.684;5.142;2022-08-14T02:24:13;101026.38;;;18.39;65.86
67840;BME280;54636;51.684;5.142;2022-08-14T02:26:42;101031.88;;;18.39;66.31
67840;BME280;54636;51.684;5.142;2022-08-14T02:29:14;101042.34;;;18.41;66.47
67840;BME280;54636;51.684;5.142;2022-08-14T02:31:44;101037.69;;;18.36;66.44
67840;BME280;54636;51.684;5.142;2022-08-14T02:34:14;101040.97;;;18.34;67.13
67840;BME280;54636;51.684;5.142;2022-08-14T02:36:40;101031.97;;;18.34;66.72
67840;BME280;54636;51.684;5.142;2022-08-14T02:39:07;101029.56;;;18.30;66.78
67840;BME280;54636;51.684;5.142;2022-08-14T02:41:33;101016.34;;;18.16;67.12
67840;BME280;54636;51.684;5.142;2022-08-14T02:44:01;101020.16;;;18.13;67.73
67840;BME280;54636;51.684;5.142;2022-08-14T02:46:27;101011.81;;;18.05;67.50
67840;BME280;54636;51.684;5.142;2022-08-14T02:48:52;101024.28;;;18.06;67.75
67840;BME280;54636;51.684;5.142;2022-08-14T02:51:18;101024.72;;;18.10;68.22
67840;BME280;54636;51.684;5.142;2022-08-14T02:53:44;101011.69;;;17.97;67.70
67840;BME280;54636;51.684;5.142;2022-08-14T02:56:13;101023.31;;;18.03;68.10
67840;BME280;54636;51.684;5.142;2022-08-14T02:58:48;101023.44;;;17.98;68.26
67840;BME280;54636;51.684;5.142;2022-08-14T03:01:15;101015.28;;;17.92;68.63
67840;BME280;54636;51.684;5.142;2022-08-14T03:03:43;101017.94;;;17.98;68.55
67840;BME280;54636;51.684;5.142;2022-08-14T03:06:09;101019.19;;;17.97;68.67
67840;BME280;54636;51.684;5.142;2022-08-14T03:08:37;101019.50;;;17.93;68.46
67840;BME280;54636;51.684;5.142;2022-08-14T03:11:05;101012.72;;;17.81;68.97
67840;BME280;54636;51.684;5.142;2022-08-14T03:13:34;100998.13;;;17.73;68.95
67840;BME280;54636;51.684;5.142;2022-08-14T03:16:04;101009.75;;;17.79;69.06
67840;BME280;54636;51.684;5.142;2022-08-14T03:18:30;100993.25;;;17.66;69.26
67840;BME280;54636;51.684;5.142;2022-08-14T03:20:56;101004.88;;;17.72;69.48
67840;BME280;54636;51.684;5.142;2022-08-14T03:23:22;101008.91;;;17.71;69.62
67840;BME280;54636;51.684;5.142;2022-08-14T03:25:47;101008.91;;;17.71;69.60
67840;BME280;54636;51.684;5.142;2022-08-14T03:28:13;101008.47;;;17.67;69.86
67840;BME280;54636;51.684;5.142;2022-08-14T03:30:39;101014.47;;;17.65;70.20
67840;BME280;54636;51.684;5.142;2022-08-14T03:33:06;100987.50;;;17.51;70.32
67840;BME280;54636;51.684;5.142;2022-08-14T03:35:32;100997.44;;;17.54;70.00
67840;BME280;54636;51.684;5.142;2022-08-14T03:38:06;101000.06;;;17.59;70.08
67840;BME280;54636;51.684;5.142;2022-08-14T03:40:33;100994.34;;;17.44;70.47
67840;BME280;54636;51.684;5.142;2022-08-14T03:42:58;101006.94;;;17.53;70.38
67840;BME280;54636;51.684;5.142;2022-08-14T03:45:24;101006.94;;;17.53;70.44
67840;BME280;54636;51.684;5.142;2022-08-14T03:47:49;101002.06;;;17.45;70.90
67840;BME280;54636;51.684;5.142;2022-08-14T03:50:15;100991.78;;;17.33;71.14
67840;BME280;54636;51.684;5.142;2022-08-14T03:52:40;101001.72;;;17.36;71.34
67840;BME280;54636;51.684;5.142;2022-08-14T03:55:11;101009.00;;;17.33;71.04
67840;BME280;54636;51.684;5.142;2022-08-14T03:57:40;101005.06;;;17.29;71.16
67840;BME280;54636;51.684;5.142;2022-08-14T04:00:09;101006.13;;;17.26;71.64
67840;BME280;54636;51.684;5.142;2022-08-14T04:02:36;101004.84;;;17.27;68.90
67840;BME280;54636;51.684;5.142;2022-08-14T04:05:01;100995.06;;;17.12;71.43
67840;BME280;54636;51.684;5.142;2022-08-14T04:07:27;101001.75;;;17.17;72.23
67840;BME280;54636;51.684;5.142;2022-08-14T04:09:52;100987.75;;;17.02;72.23
67840;BME280;54636;51.684;5.142;2022-08-14T04:12:18;100999.81;;;17.12;71.76
67840;BME280;54636;51.684;5.142;2022-08-14T04:14:44;101002.13;;;17.08;72.57
67840;BME280;54636;51.684;5.142;2022-08-14T04:17:09;101000.44;;;17.05;72.47
67840;BME280;54636;51.684;5.142;2022-08-14T04:19:36;100993.22;;;17.02;73.10
67840;BME280;54636;51.684;5.142;2022-08-14T04:22:01;100992.28;;;16.99;72.60
67840;BME280;54636;51.684;5.142;2022-08-14T04:24:27;100990.03;;;16.98;72.81
67840;BME280;54636;51.684;5.142;2022-08-14T04:26:53;100993.53;;;16.98;72.61
67840;BME280;54636;51.684;5.142;2022-08-14T04:29:18;100978.84;;;16.96;72.84
67840;BME280;54636;51.684;5.142;2022-08-14T04:31:44;100980.09;;;16.95;73.32
67840;BME280;54636;51.684;5.142;2022-08-14T04:34:11;100982.41;;;16.91;73.83
67840;BME280;54636;51.684;5.142;2022-08-14T04:36:36;100973.75;;;16.87;74.15
67840;BME280;54636;51.684;5.142;2022-08-14T04:39:22;100971.75;;;16.87;74.31
67840;BME280;54636;51.684;5.142;2022-08-14T04:42:05;100973.03;;;16.86;74.08
67840;BME280;54636;51.684;5.142;2022-08-14T04:44:49;100969.03;;;16.87;74.04
67840;BME280;54636;51.684;5.142;2022-08-14T04:47:16;100961.16;;;16.78;74.19
67840;BME280;54636;51.684;5.142;2022-08-14T04:50:02;100965.94;;;16.91;73.99
67840;BME280;54636;51.684;5.142;2022-08-14T04:52:28;100962.34;;;16.83;73.78
67840;BME280;54636;51.684;5.142;2022-08-14T04:54:53;100965.22;;;16.90;74.43
67840;BME280;54636;51.684;5.142;2022-08-14T04:57:18;100963.44;;;16.93;74.05
67840;BME280;54636;51.684;5.142;2022-08-14T04:59:44;100964.59;;;16.97;74.02
67840;BME280;54636;51.684;5.142;2022-08-14T05:02:09;100967.06;;;17.01;73.99
67840;BME280;54636;51.684;5.142;2022-08-14T05:04:34;100973.72;;;17.05;73.87
67840;BME280;54636;51.684;5.142;2022-08-14T05:07:00;100959.91;;;17.11;73.72
67840;BME280;54636;51.684;5.142;2022-08-14T05:09:26;100946.81;;;17.36;73.58
67840;BME280;54636;51.684;5.142;2022-08-14T05:11:51;100963.03;;;18.32;71.29
67840;BME280;54636;51.684;5.142;2022-08-14T05:14:18;100949.00;;;19.24;68.04
67840;BME280;54636;51.684;5.142;2022-08-14T05:16:46;100966.09;;;20.00;65.26
67840;BME280;54636;51.684;5.142;2022-08-14T05:19:12;100947.97;;;20.56;62.94
67840;BME280;54636;51.684;5.142;2022-08-14T05:21:39;100943.31;;;21.25;60.51
67840;BME280;54636;51.684;5.142;2022-08-14T05:24:05;100958.72;;;21.97;58.48
67840;BME280;54636;51.684;5.142;2022-08-14T05:26:30;100953.28;;;22.22;57.41
67840;BME280;54636;51.684;5.142;2022-08-14T05:28:56;100944.91;;;21.82;58.26
67840;BME280;54636;51.684;5.142;2022-08-14T05:31:21;100944.97;;;21.28;59.00
67840;BME280;54636;51.684;5.142;2022-08-14T05:33:47;100941.22;;;20.73;60.85
67840;BME280;54636;51.684;5.142;2022-08-14T05:36:14;100945.28;;;20.35;62.67
67840;BME280;54636;51.684;5.142;2022-08-14T05:38:42;100951.03;;;20.01;63.60
67840;BME280;54636;51.684;5.142;2022-08-14T05:41:14;100954.13;;;19.69;64.84
67840;BME280;54636;51.684;5.142;2022-08-14T05:43:42;100946.22;;;19.45;65.70
67840;BME280;54636;51.684;5.142;2022-08-14T05:46:12;100955.63;;;19.50;65.84
67840;BME280;54636;51.684;5.142;2022-08-14T05:48:38;100958.13;;;19.40;66.42
67840;BME280;54636;51.684;5.142;2022-08-14T05:51:04;100955.09;;;19.30;67.66
67840;BME280;54636;51.684;5.142;2022-08-14T05:53:29;100945.50;;;19.24;67.59
67840;BME280;54636;51.684;5.142;2022-08-14T05:55:55;100934.00;;;19.12;67.12
67840;BME280;54636;51.684;5.142;2022-08-14T05:58:22;100940.81;;;19.11;67.98
67840;BME280;54636;51.684;5.142;2022-08-14T06:00:47;100942.19;;;19.04;68.03
67840;BME280;54636;51.684;5.142;2022-08-14T06:03:19;100951.19;;;19.05;68.31
67840;BME280;54636;51.684;5.142;2022-08-14T06:05:47;100938.97;;;18.93;69.19
67840;BME280;54636;51.684;5.142;2022-08-14T06:08:24;100953.53;;;19.01;69.25
67840;BME280;54636;51.684;5.142;2022-08-14T06:10:51;100949.44;;;18.94;69.76
67840;BME280;54636;51.684;5.142;2022-08-14T06:13:17;100956.09;;;18.99;70.30
67840;BME280;54636;51.684;5.142;2022-08-14T06:15:44;100957.56;;;19.00;69.19
67840;BME280;54636;51.684;5.142;2022-08-14T06:18:09;100961.47;;;19.04;69.33
67840;BME280;54636;51.684;5.142;2022-08-14T06:20:37;100960.41;;;19.07;69.43
67840;BME280;54636;51.684;5.142;2022-08-14T06:23:03;100965.78;;;19.13;69.55
67840;BME280;54636;51.684;5.142;2022-08-14T06:25:28;100954.44;;;19.17;69.73
67840;BME280;54636;51.684;5.142;2022-08-14T06:27:54;100945.84;;;19.20;69.47
67840;BME280;54636;51.684;5.142;2022-08-14T06:30:23;100916.69;;;19.04;70.48
67840;BME280;54636;51.684;5.142;2022-08-14T06:32:49;100949.25;;;19.34;70.05
67840;BME280;54636;51.684;5.142;2022-08-14T06:35:16;100929.78;;;19.32;70.07
67840;BME280;54636;51.684;5.142;2022-08-14T06:37:55;100951.94;;;19.47;70.36
67840;BME280;54636;51.684;5.142;2022-08-14T06:40:27;100951.25;;;19.54;69.96
67840;BME280;54636;51.684;5.142;2022-08-14T06:42:59;100955.34;;;19.61;70.27
67840;BME280;54636;51.684;5.142;2022-08-14T06:45:25;100948.41;;;19.67;70.28
67840;BME280;54636;51.684;5.142;2022-08-14T06:47:50;100909.19;;;19.54;69.93
67840;BME280;54636;51.684;5.142;2022-08-14T06:50:18;100943.00;;;19.83;70.01
67840;BME280;54636;51.684;5.142;2022-08-14T06:52:46;100923.97;;;19.92;69.53
67840;BME280;54636;51.684;5.142;2022-08-14T06:55:15;100925.72;;;20.11;69.09
67840;BME280;54636;51.684;5.142;2022-08-14T06:57:47;100925.38;;;20.22;68.57
67840;BME280;54636;51.684;5.142;2022-08-14T07:00:14;100938.78;;;20.61;67.22
67840;BME280;54636;51.684;5.142;2022-08-14T07:02:40;100931.50;;;21.48;64.83
67840;BME280;54636;51.684;5.142;2022-08-14T07:05:24;100937.72;;;22.74;60.29
67840;BME280;54636;51.684;5.142;2022-08-14T07:08:21;100945.28;;;23.73;58.33
67840;BME280;54636;51.684;5.142;2022-08-14T07:10:52;100929.41;;;24.18;55.75
67840;BME280;54636;51.684;5.142;2022-08-14T07:13:19;100941.66;;;24.32;54.78
67840;BME280;54636;51.684;5.142;2022-08-14T07:15:49;100919.78;;;24.36;54.56
67840;BME280;54636;51.684;5.142;2022-08-14T07:18:20;100917.25;;;24.30;54.46
67840;BME280;54636;51.684;5.142;2022-08-14T07:20:47;100917.16;;;24.21;55.11
67840;BME280;54636;51.684;5.142;2022-08-14T07:23:12;100920.59;;;24.12;55.35
67840;BME280;54636;51.684;5.142;2022-08-14T07:25:41;100925.94;;;24.00;55.87
67840;BME280;54636;51.684;5.142;2022-08-14T07:28:12;100933.13;;;23.86;56.38
67840;BME280;54636;51.684;5.142;2022-08-14T07:30:38;100942.34;;;23.71;56.06
67840;BME280;54636;51.684;5.142;2022-08-14T07:33:04;100926.50;;;23.64;56.35
67840;BME280;54636;51.684;5.142;2022-08-14T07:35:31;100925.38;;;23.42;56.69
67840;BME280;54636;51.684;5.142;2022-08-14T07:37:57;100929.72;;;23.36;57.78
67840;BME280;54636;51.684;5.142;2022-08-14T07:40:22;100926.56;;;23.39;58.54
67840;BME280;54636;51.684;5.142;2022-08-14T07:42:48;100931.66;;;23.43;58.43
67840;BME280;54636;51.684;5.142;2022-08-14T07:45:13;100931.25;;;23.46;58.42
67840;BME280;54636;51.684;5.142;2022-08-14T07:47:42;100923.28;;;23.50;57.49
67840;BME280;54636;51.684;5.142;2022-08-14T07:50:13;100910.84;;;23.59;57.00
67840;BME280;54636;51.684;5.142;2022-08-14T07:52:42;100923.81;;;23.74;54.88
67840;BME280;54636;51.684;5.142;2022-08-14T07:55:10;100921.53;;;23.80;56.57
67840;BME280;54636;51.684;5.142;2022-08-14T07:57:41;100918.75;;;23.97;55.20
67840;BME280;54636;51.684;5.142;2022-08-14T08:00:10;100919.63;;;24.17;54.26
67840;BME280;54636;51.684;5.142;2022-08-14T08:02:37;100918.06;;;24.23;54.98
67840;BME280;54636;51.684;5.142;2022-08-14T08:05:08;100911.13;;;24.32;52.68
67840;BME280;54636;51.684;5.142;2022-08-14T08:07:34;100916.22;;;24.53;52.54
67840;BME280;54636;51.684;5.142;2022-08-14T08:10:15;100917.59;;;24.61;52.14
67840;BME280;54636;51.684;5.142;2022-08-14T08:13:15;100919.69;;;24.80;52.28
67840;BME280;54636;51.684;5.142;2022-08-14T08:15:46;100905.69;;;24.88;50.53
67840;BME280;54636;51.684;5.142;2022-08-14T08:18:14;100914.41;;;25.02;50.25
67840;BME280;54636;51.684;5.142;2022-08-14T08:20:44;100912.69;;;25.16;50.08
67840;BME280;54636;51.684;5.142;2022-08-14T08:23:14;100907.31;;;25.27;50.56
67840;BME280;54636;51.684;5.142;2022-08-14T08:25:41;100896.19;;;25.47;50.20
67840;BME280;54636;51.684;5.142;2022-08-14T08:28:13;100903.25;;;25.67;50.77
67840;BME280;54636;51.684;5.142;2022-08-14T08:30:46;100883.19;;;25.78;50.58
67840;BME280;54636;51.684;5.142;2022-08-14T08:33:11;100865.34;;;25.72;47.98
67840;BME280;54636;51.684;5.142;2022-08-14T08:35:41;100886.81;;;26.10;49.17
67840;BME280;54636;51.684;5.142;2022-08-14T08:38:12;100894.84;;;26.35;48.26
67840;BME280;54636;51.684;5.142;2022-08-14T08:40:43;100883.13;;;26.36;47.43
67840;BME280;54636;51.684;5.142;2022-08-14T08:45:40;100899.63;;;26.53;47.32
67840;BME280;54636;51.684;5.142;2022-08-14T08:48:06;100885.16;;;26.45;46.81
67840;BME280;54636;51.684;5.142;2022-08-14T08:50:35;100905.41;;;26.77;47.38
67840;BME280;54636;51.684;5.142;2022-08-14T08:53:08;100870.69;;;26.68;46.79
67840;BME280;54636;51.684;5.142;2022-08-14T08:55:40;100902.91;;;27.12;47.06
67840;BME280;54636;51.684;5.142;2022-08-14T08:58:11;100887.91;;;27.17;44.90
67840;BME280;54636;51.684;5.142;2022-08-14T09:00:38;100863.72;;;27.31;45.58
67840;BME280;54636;51.684;5.142;2022-08-14T09:03:10;100881.84;;;27.42;43.91
67840;BME280;54636;51.684;5.142;2022-08-14T09:05:53;100883.25;;;27.52;45.51
67840;BME280;54636;51.684;5.142;2022-08-14T09:08:27;100898.19;;;27.78;46.50
67840;BME280;54636;51.684;5.142;2022-08-14T09:10:57;100900.06;;;27.97;43.34
67840;BME280;54636;51.684;5.142;2022-08-14T09:13:24;100875.66;;;27.86;42.63
67840;BME280;54636;51.684;5.142;2022-08-14T09:15:51;100872.16;;;27.97;44.12
67840;BME280;54636;51.684;5.142;2022-08-14T09:18:19;100863.91;;;27.99;43.08
67840;BME280;54636;51.684;5.142;2022-08-14T09:20:51;100886.16;;;28.20;42.54
67840;BME280;54636;51.684;5.142;2022-08-14T09:23:17;100854.81;;;28.10;44.04
67840;BME280;54636;51.684;5.142;2022-08-14T09:25:46;100873.47;;;28.41;42.42
67840;BME280;54636;51.684;5.142;2022-08-14T09:28:13;100875.81;;;28.56;42.51
67840;BME280;54636;51.684;5.142;2022-08-14T09:30:42;100880.53;;;28.77;42.07
67840;BME280;54636;51.684;5.142;2022-08-14T09:36:13;100865.47;;;28.94;41.39
67840;BME280;54636;51.684;5.142;2022-08-14T09:38:48;100853.94;;;28.88;40.05
67840;BME280;54636;51.684;5.142;2022-08-14T09:41:34;100863.75;;;29.12;40.92
67840;BME280;54636;51.684;5.142;2022-08-14T09:44:07;100862.47;;;29.27;39.87
67840;BME280;54636;51.684;5.142;2022-08-14T09:46:35;100825.56;;;29.05;38.16
67840;BME280;54636;51.684;5.142;2022-08-14T09:49:03;100844.13;;;29.24;39.83
67840;BME280;54636;51.684;5.142;2022-08-14T09:51:33;100847.81;;;29.40;39.11
67840;BME280;54636;51.684;5.142;2022-08-14T09:54:05;100831.06;;;29.28;38.46
67840;BME280;54636;51.684;5.142;2022-08-14T09:56:50;100821.69;;;29.35;39.65
67840;BME280;54636;51.684;5.142;2022-08-14T09:59:18;100822.56;;;29.63;39.54
67840;BME280;54636;51.684;5.142;2022-08-14T10:01:49;100841.50;;;29.76;40.13
67840;BME280;54636;51.684;5.142;2022-08-14T10:04:25;100814.28;;;29.65;39.79
67840;BME280;54636;51.684;5.142;2022-08-14T10:06:53;100824.31;;;29.96;40.15
67840;BME280;54636;51.684;5.142;2022-08-14T10:09:19;100798.09;;;29.89;38.40
67840;BME280;54636;51.684;5.142;2022-08-14T10:11:56;100804.00;;;29.95;36.81
67840;BME280;54636;51.684;5.142;2022-08-14T10:14:23;100798.59;;;29.86;35.74
67840;BME280;54636;51.684;5.142;2022-08-14T10:16:54;100809.66;;;30.09;37.14
67840;BME280;54636;51.684;5.142;2022-08-14T10:19:25;100816.84;;;30.39;36.99
67840;BME280;54636;51.684;5.142;2022-08-14T10:22:01;100818.31;;;30.54;36.16
67840;BME280;54636;51.684;5.142;2022-08-14T10:24:30;100793.19;;;30.42;35.11
67840;BME280;54636;51.684;5.142;2022-08-14T10:26:58;100810.84;;;30.59;34.88
67840;BME280;54636;51.684;5.142;2022-08-14T10:29:32;100789.34;;;30.50;35.12
67840;BME280;54636;51.684;5.142;2022-08-14T10:31:59;100800.97;;;30.71;34.71
67840;BME280;54636;51.684;5.142;2022-08-14T10:34:32;100779.50;;;30.62;33.77
67840;BME280;54636;51.684;5.142;2022-08-14T10:37:09;100799.41;;;30.82;34.35
67840;BME280;54636;51.684;5.142;2022-08-14T10:39:37;100779.38;;;30.74;34.30
67840;BME280;54636;51.684;5.142;2022-08-14T10:42:09;100795.75;;;30.93;34.85
67840;BME280;54636;51.684;5.142;2022-08-14T10:44:38;100760.69;;;30.78;34.23
67840;BME280;54636;51.684;5.142;2022-08-14T10:47:05;100788.47;;;31.02;34.65
67840;BME280;54636;51.684;5.142;2022-08-14T10:49:42;100767.06;;;31.08;35.09
67840;BME280;54636;51.684;5.142;2022-08-14T10:52:27;100761.88;;;31.32;34.31
67840;BME280;54636;51.684;5.142;2022-08-14T10:57:49;100766.09;;;31.47;33.16
67840;BME280;54636;51.684;5.142;2022-08-14T11:00:19;100772.06;;;31.55;34.57
67840;BME280;54636;51.684;5.142;2022-08-14T11:03:20;100764.13;;;31.65;34.54
67840;BME280;54636;51.684;5.142;2022-08-14T11:05:48;100753.19;;;31.71;33.02
67840;BME280;54636;51.684;5.142;2022-08-14T11:08:15;100767.94;;;31.88;33.25
67840;BME280;54636;51.684;5.142;2022-08-14T11:10:54;100749.50;;;31.83;33.42
67840;BME280;54636;51.684;5.142;2022-08-14T11:13:26;100751.09;;;31.88;34.03
67840;BME280;54636;51.684;5.142;2022-08-14T11:15:53;100737.06;;;31.88;32.63
67840;BME280;54636;51.684;5.142;2022-08-14T11:18:25;100741.22;;;31.87;32.70
67840;BME280;54636;51.684;5.142;2022-08-14T11:20:53;100739.22;;;31.89;32.47
67840;BME280;54636;51.684;5.142;2022-08-14T11:23:24;100747.56;;;32.03;32.82
67840;BME280;54636;51.684;5.142;2022-08-14T11:25:50;100750.38;;;32.03;31.99
67840;BME280;54636;51.684;5.142;2022-08-14T11:28:24;100749.00;;;32.20;32.23
67840;BME280;54636;51.684;5.142;2022-08-14T11:30:53;100754.09;;;32.23;31.88
67840;BME280;54636;51.684;5.142;2022-08-14T11:33:24;100734.41;;;32.07;32.11
67840;BME280;54636;51.684;5.142;2022-08-14T11:35:53;100739.84;;;32.03;30.51
67840;BME280;54636;51.684;5.142;2022-08-14T11:38:18;100762.06;;;32.29;31.07
67840;BME280;54636;51.684;5.142;2022-08-14T11:40:46;100741.38;;;32.38;29.54
67840;BME280;54636;51.684;5.142;2022-08-14T11:43:11;100753.28;;;32.54;28.23
67840;BME280;54636;51.684;5.142;2022-08-14T11:45:38;100717.28;;;32.33;30.15
67840;BME280;54636;51.684;5.142;2022-08-14T11:48:24;100739.13;;;32.52;29.52
67840;BME280;54636;51.684;5.142;2022-08-14T11:50:51;100717.34;;;32.19;30.61
67840;BME280;54636;51.684;5.142;2022-08-14T11:53:25;100725.63;;;32.15;29.50
67840;BME280;54636;51.684;5.142;2022-08-14T11:55:59;100718.84;;;32.04;30.52
67840;BME280;54636;51.684;5.142;2022-08-14T11:58:31;100703.75;;;31.80;29.43
67840;BME280;54636;51.684;5.142;2022-08-14T12:00:59;100691.06;;;31.79;29.81
67840;BME280;54636;51.684;5.142;2022-08-14T12:03:36;100710.97;;;31.85;30.91
67840;BME280;54636;51.684;5.142;2022-08-14T12:06:03;100680.38;;;31.75;30.62
67840;BME280;54636;51.684;5.142;2022-08-14T12:08:32;100687.59;;;31.81;29.59
67840;BME280;54636;51.684;5.142;2022-08-14T12:10:59;100665.50;;;31.73;29.82
67840;BME280;54636;51.684;5.142;2022-08-14T12:13:28;100668.72;;;31.99;29.95
67840;BME280;54636;51.684;5.142;2022-08-14T12:15:59;100683.19;;;32.25;30.29
67840;BME280;54636;51.684;5.142;2022-08-14T12:18:32;100683.00;;;32.21;29.68
67840;BME280;54636;51.684;5.142;2022-08-14T12:21:10;100665.69;;;32.26;29.13
67840;BME280;54636;51.684;5.142;2022-08-14T12:23:39;100656.31;;;32.37;29.61
67840;BME280;54636;51.684;5.142;2022-08-14T12:26:08;100684.84;;;32.48;29.58
67840;BME280;54636;51.684;5.142;2022-08-14T12:28:35;100673.19;;;31.88;30.03
67840;BME280;54636;51.684;5.142;2022-08-14T12:31:14;100684.16;;;31.66;30.46
67840;BME280;54636;51.684;5.142;2022-08-14T12:33:42;100675.63;;;31.49;31.26
67840;BME280;54636;51.684;5.142;2022-08-14T12:36:09;100662.94;;;31.48;30.15
67840;BME280;54636;51.684;5.142;2022-08-14T12:38:45;100662.50;;;31.53;30.24
67840;BME280;54636;51.684;5.142;2022-08-14T12:41:16;100641.13;;;31.30;30.92
67840;BME280;54636;51.684;5.142;2022-08-14T12:43:46;100655.59;;;31.25;30.79
67840;BME280;54636;51.684;5.142;2022-08-14T12:46:26;100663.81;;;31.21;32.05
67840;BME280;54636;51.684;5.142;2022-08-14T12:48:52;100632.00;;;31.00;31.52
67840;BME280;54636;51.684;5.142;2022-08-14T12:51:20;100640.56;;;31.34;31.28
67840;BME280;54636;51.684;5.142;2022-08-14T12:53:47;100647.84;;;31.70;30.83
67840;BME280;54636;51.684;5.142;2022-08-14T12:56:20;100629.44;;;31.83;31.29
67840;BME280;54636;51.684;5.142;2022-08-14T12:58:57;100634.06;;;32.10;30.96
67840;BME280;54636;51.684;5.142;2022-08-14T13:01:28;100644.56;;;32.25;29.57
67840;BME280;54636;51.684;5.142;2022-08-14T13:04:15;100629.41;;;32.32;29.81
67840;BME280;54636;51.684;5.142;2022-08-14T13:06:43;100635.75;;;32.51;29.44
67840;BME280;54636;51.684;5.142;2022-08-14T13:09:10;100630.59;;;32.27;28.95